createdAt,value
2019-04-27T00:00:47.050Z,66.90
2019-04-27T00:03:23.523Z,66.77
2019-04-27T00:05:53.654Z,67.09
2019-04-27T00:08:39.163Z,66.45
2019-04-27T00:11:13.638Z,65.59
2019-04-27T00:13:43.937Z,66.48
2019-04-27T00:16:14.702Z,65.64
2019-04-27T00:18:49.723Z,65.70
2019-04-27T00:21:19.421Z,65.99
2019-04-27T00:23:48.453Z,66.24
2019-04-27T00:26:17.079Z,65.58
2019-04-27T00:28:45.711Z,66.46
2019-04-27T00:31:14.390Z,65.40
2019-04-27T00:33:43.553Z,66.16
2019-04-27T00:36:13.700Z,65.00
2019-04-27T00:38:47.915Z,64.88
2019-04-27T00:41:19.238Z,64.62
2019-04-27T00:43:47.878Z,64.45
2019-04-27T00:46:16.531Z,64.50
2019-04-27T00:48:45.588Z,64.58
2019-04-27T00:51:14.510Z,64.93
2019-04-27T00:53:43.694Z,64.69
2019-04-27T00:56:14.031Z,65.62
2019-04-27T00:58:45.503Z,65.20
2019-04-27T01:01:16.234Z,65.32
2019-04-27T01:03:58.199Z,66.09
2019-04-27T01:06:33.826Z,66.81
2019-04-27T01:09:03.539Z,66.20
2019-04-27T01:11:33.284Z,66.41
2019-04-27T01:14:03.751Z,66.99
2019-04-27T01:16:32.425Z,67.47
2019-04-27T01:19:00.910Z,67.77
2019-04-27T01:21:29.653Z,68.27
2019-04-27T01:23:58.922Z,66.65
2019-04-27T01:26:45.340Z,66.74
2019-04-27T01:29:15.611Z,66.14
2019-04-27T01:31:44.296Z,66.46
2019-04-27T01:34:12.881Z,66.92
2019-04-27T01:36:41.435Z,66.60
2019-04-27T01:39:14.614Z,66.72
2019-04-27T01:41:43.982Z,67.44
2019-04-27T01:44:12.604Z,67.14
2019-04-27T01:46:41.185Z,66.98
2019-04-27T01:49:09.806Z,67.03
2019-04-27T01:51:39.157Z,66.83
2019-04-27T01:54:10.468Z,67.18
2019-04-27T01:56:39.505Z,70.32
2019-04-27T01:59:08.650Z,67.45
2019-04-27T02:01:40.416Z,66.73
2019-04-27T02:04:25.645Z,66.57
2019-04-27T02:06:55.896Z,66.48
2019-04-27T02:09:24.877Z,66.96
2019-04-27T02:11:53.730Z,66.67
2019-04-27T02:14:22.464Z,66.58
2019-04-27T02:16:51.046Z,67.21
2019-04-27T02:19:19.681Z,66.96
2019-04-27T02:21:49.461Z,67.14
2019-04-27T02:24:18.886Z,67.05
2019-04-27T02:26:47.511Z,67.15
2019-04-27T02:29:26.815Z,67.11
2019-04-27T02:32:13.216Z,69.70
2019-04-27T02:34:43.419Z,67.28
2019-04-27T02:37:11.932Z,66.92
2019-04-27T02:39:40.476Z,66.84
2019-04-27T02:42:10.163Z,67.11
2019-04-27T02:44:40.872Z,67.42
2019-04-27T02:47:10.651Z,67.81
2019-04-27T02:49:40.644Z,67.99
2019-04-27T02:52:16.853Z,67.99
2019-04-27T02:54:45.464Z,67.52
2019-04-27T02:57:14.936Z,67.71
2019-04-27T02:59:43.570Z,67.63
2019-04-27T03:02:19.423Z,67.85
2019-04-27T03:04:49.584Z,67.98
2019-04-27T03:07:19.871Z,69.42
2019-04-27T03:09:50.603Z,68.70
2019-04-27T03:12:19.890Z,68.18
2019-04-27T03:14:50.683Z,67.95
2019-04-27T03:17:23.763Z,67.12
2019-04-27T03:20:00.057Z,66.93
2019-04-27T03:22:42.367Z,69.00
2019-04-27T03:25:15.349Z,67.98
2019-04-27T03:27:50.300Z,68.44
2019-04-27T03:30:23.044Z,68.83
2019-04-27T03:32:51.288Z,69.49
2019-04-27T03:35:22.824Z,69.62
2019-04-27T03:37:50.190Z,69.72
2019-04-27T03:40:20.394Z,68.73
2019-04-27T03:42:50.775Z,70.40
2019-04-27T03:45:20.333Z,69.13
2019-04-27T03:47:50.553Z,68.75
2019-04-27T03:50:20.892Z,68.82
2019-04-27T03:53:06.187Z,68.17
2019-04-27T03:55:42.721Z,67.60
2019-04-27T03:58:26.008Z,68.35
2019-04-27T04:00:54.964Z,68.56
2019-04-27T04:03:23.832Z,68.05
2019-04-27T04:05:52.519Z,67.52
2019-04-27T04:08:21.079Z,68.18
2019-04-27T04:10:51.336Z,68.62
2019-04-27T04:13:29.556Z,68.52
2019-04-27T04:16:10.707Z,68.11
2019-04-27T04:18:40.258Z,70.66
2019-04-27T04:21:09.583Z,68.28
2019-04-27T04:23:40.219Z,68.24
2019-04-27T04:26:09.853Z,66.89
2019-04-27T04:28:39.625Z,68.51
2019-04-27T04:31:13.279Z,67.25
2019-04-27T04:33:40.333Z,66.43
2019-04-27T04:36:10.145Z,66.29
2019-04-27T04:38:40.162Z,66.36
2019-04-27T04:41:16.389Z,66.30
2019-04-27T04:43:49.500Z,66.80
2019-04-27T04:46:22.948Z,67.08
2019-04-27T04:48:50.400Z,66.54
2019-04-27T04:51:20.087Z,66.92
2019-04-27T04:53:51.706Z,67.75
2019-04-27T04:56:19.116Z,66.12
2019-04-27T04:58:49.690Z,66.34
2019-04-27T05:01:19.661Z,65.14
2019-04-27T05:03:48.839Z,65.24
2019-04-27T05:06:18.990Z,64.84
2019-04-27T05:08:49.280Z,66.06
2019-04-27T05:11:19.624Z,66.35
2019-04-27T05:13:49.433Z,65.94
2019-04-27T05:16:18.921Z,65.96
2019-04-27T05:18:49.406Z,66.35
2019-04-27T05:21:25.592Z,66.25
2019-04-27T05:23:54.149Z,65.77
2019-04-27T05:26:22.737Z,65.58
2019-04-27T05:28:51.283Z,68.04
2019-04-27T05:31:19.812Z,66.05
2019-04-27T05:33:49.051Z,65.97
2019-04-27T05:36:19.330Z,65.10
2019-04-27T05:38:49.680Z,65.29
2019-04-27T05:41:18.788Z,65.40
2019-04-27T05:43:59.117Z,65.24
2019-04-27T05:46:45.783Z,64.94
2019-04-27T05:49:15.927Z,64.66
2019-04-27T05:51:44.425Z,65.46
2019-04-27T05:54:12.931Z,65.19
2019-04-27T05:56:41.438Z,65.20
2019-04-27T05:59:09.954Z,65.09
2019-04-27T06:01:39.071Z,65.63
2019-04-27T06:04:09.008Z,65.49
2019-04-27T06:06:39.663Z,67.42
2019-04-27T06:09:09.510Z,65.78
2019-04-27T06:11:39.827Z,65.92
2019-04-27T06:14:09.665Z,66.18
2019-04-27T06:16:39.364Z,65.96
2019-04-27T06:19:09.673Z,66.26
2019-04-27T06:21:40.034Z,66.28
2019-04-27T06:24:08.868Z,66.17
2019-04-27T06:26:37.339Z,66.48
2019-04-27T06:29:05.897Z,66.44
2019-04-27T06:31:34.488Z,66.51
2019-04-27T06:34:03.114Z,66.21
2019-04-27T06:36:31.739Z,66.63
2019-04-27T06:39:00.340Z,66.86
2019-04-27T06:41:29.502Z,68.51
2019-04-27T06:43:59.203Z,68.50
2019-04-27T06:46:28.824Z,67.94
2019-04-27T06:48:59.253Z,67.88
2019-04-27T06:51:28.727Z,68.32
2019-04-27T06:53:57.279Z,68.43
2019-04-27T06:56:25.856Z,69.09
2019-04-27T06:58:54.368Z,68.83
2019-04-27T07:01:23.001Z,68.42
2019-04-27T07:03:51.537Z,68.71
2019-04-27T07:06:20.078Z,68.88
2019-04-27T07:08:49.800Z,68.53
2019-04-27T07:11:19.740Z,69.26
2019-04-27T07:13:49.778Z,68.10
2019-04-27T07:16:19.627Z,68.44
2019-04-27T07:18:48.277Z,68.19
2019-04-27T07:21:22.319Z,68.07
2019-04-27T07:23:59.075Z,68.03
2019-04-27T07:26:30.610Z,71.32
2019-04-27T07:28:59.714Z,68.86
2019-04-27T07:31:29.506Z,68.92
2019-04-27T07:33:59.535Z,69.09
2019-04-27T07:36:28.988Z,69.39
2019-04-27T07:38:59.644Z,69.41
2019-04-27T07:41:29.133Z,68.83
2019-04-27T07:43:59.531Z,68.79
2019-04-27T07:46:29.936Z,69.18
2019-04-27T07:48:59.484Z,69.61
2019-04-27T07:51:32.087Z,70.39
2019-04-27T07:53:58.901Z,70.09
2019-04-27T07:56:29.117Z,69.70
2019-04-27T07:58:59.429Z,69.69
2019-04-27T08:01:29.421Z,68.60
2019-04-27T08:03:59.032Z,69.01
2019-04-27T08:06:28.936Z,69.10
2019-04-27T08:08:59.374Z,69.26
2019-04-27T08:11:29.222Z,69.50
2019-04-27T08:13:58.852Z,69.02
2019-04-27T08:16:29.044Z,69.62
2019-04-27T08:18:59.851Z,69.44
2019-04-27T08:21:28.921Z,69.68
2019-04-27T08:23:58.653Z,70.31
2019-04-27T08:26:29.369Z,70.15
2019-04-27T08:29:01.937Z,70.87
2019-04-27T08:31:32.195Z,70.54
2019-04-27T08:34:00.838Z,71.35
2019-04-27T08:36:29.441Z,70.88
2019-04-27T08:38:58.852Z,70.87
2019-04-27T08:41:29.465Z,70.87
2019-04-27T08:43:58.722Z,71.63
2019-04-27T08:46:28.625Z,71.08
2019-04-27T08:48:58.703Z,71.47
2019-04-27T08:51:29.020Z,71.42
2019-04-27T08:53:59.106Z,71.89
2019-04-27T08:56:27.751Z,72.12
2019-04-27T08:58:56.401Z,72.62
2019-04-27T09:01:25.029Z,72.85
2019-04-27T09:03:53.644Z,72.61
2019-04-27T09:06:22.305Z,71.71
2019-04-27T09:08:52.544Z,72.15
2019-04-27T09:11:25.427Z,72.61
2019-04-27T09:13:55.702Z,72.95
2019-04-27T09:16:31.953Z,72.77
2019-04-27T09:19:02.138Z,72.01
2019-04-27T09:21:32.382Z,71.93
2019-04-27T09:24:01.012Z,72.87
2019-04-27T09:26:29.561Z,71.68
2019-04-27T09:28:59.587Z,71.67
2019-04-27T09:31:28.844Z,71.31
2019-04-27T09:33:57.377Z,71.63
2019-04-27T09:36:26.111Z,70.39
2019-04-27T09:38:56.419Z,71.77
2019-04-27T09:41:26.205Z,72.46
2019-04-27T09:43:55.885Z,72.66
2019-04-27T09:46:25.983Z,71.84
2019-04-27T09:48:56.475Z,71.79
2019-04-27T09:51:25.658Z,71.72
2019-04-27T09:53:54.184Z,70.88
2019-04-27T09:56:22.806Z,71.31
2019-04-27T09:58:51.440Z,70.78
2019-04-27T10:01:20.094Z,70.16
2019-04-27T10:03:48.701Z,69.49
2019-04-27T10:06:17.301Z,68.20
2019-04-27T10:08:45.925Z,66.82
2019-04-27T10:11:16.186Z,67.95
2019-04-27T10:13:46.453Z,68.54
2019-04-27T10:16:15.182Z,68.36
2019-04-27T10:18:43.672Z,67.99
2019-04-27T10:21:12.189Z,67.25
2019-04-27T10:23:40.758Z,67.30
2019-04-27T10:26:09.403Z,67.30
2019-04-27T10:28:37.991Z,66.96
2019-04-27T10:31:07.105Z,66.97
2019-04-27T10:33:35.976Z,67.62
2019-04-27T10:36:06.343Z,67.89
2019-04-27T10:38:36.291Z,67.73
2019-04-27T10:41:05.651Z,67.44
2019-04-27T10:43:35.277Z,67.25
2019-04-27T10:46:03.877Z,68.17
2019-04-27T10:48:32.364Z,68.23
2019-04-27T10:51:01.011Z,67.48
2019-04-27T10:53:29.601Z,68.66
2019-04-27T10:55:58.369Z,68.35
2019-04-27T10:58:27.322Z,68.08
2019-04-27T11:00:58.489Z,67.47
2019-04-27T11:03:46.250Z,65.65
2019-04-27T11:06:32.871Z,65.35
2019-04-27T11:09:01.590Z,65.57
2019-04-27T11:11:32.603Z,64.79
2019-04-27T11:14:01.250Z,64.60
2019-04-27T11:16:29.829Z,65.67
2019-04-27T11:18:58.860Z,65.92
2019-04-27T11:21:27.551Z,66.08
2019-04-27T11:23:56.148Z,67.94
2019-04-27T11:26:26.310Z,66.17
2019-04-27T11:28:55.093Z,65.51
2019-04-27T11:31:23.710Z,65.71
2019-04-27T11:33:52.836Z,66.64
2019-04-27T11:36:22.993Z,66.76
2019-04-27T11:38:53.245Z,66.15
2019-04-27T11:41:21.733Z,66.97
2019-04-27T11:43:51.010Z,67.78
2019-04-27T11:46:19.688Z,67.49
2019-04-27T11:48:48.317Z,68.15
2019-04-27T11:51:17.458Z,68.29
2019-04-27T11:53:46.841Z,68.29
2019-04-27T11:56:15.713Z,68.51
2019-04-27T11:58:47.203Z,68.21
2019-04-27T12:01:16.345Z,68.29
2019-04-27T12:03:44.964Z,71.40
2019-04-27T12:06:13.585Z,68.78
2019-04-27T12:08:42.223Z,67.17
2019-04-27T12:11:10.813Z,66.47
2019-04-27T12:13:39.388Z,64.94
2019-04-27T12:16:08.016Z,63.68
2019-04-27T12:18:36.571Z,62.32
2019-04-27T12:21:06.134Z,61.45
2019-04-27T12:23:39.456Z,62.08
2019-04-27T12:26:05.859Z,61.96
2019-04-27T12:28:35.951Z,62.60
2019-04-27T12:31:08.696Z,61.75
2019-04-27T12:33:36.921Z,62.79
2019-04-27T12:36:06.805Z,62.73
2019-04-27T12:38:36.491Z,63.07
2019-04-27T12:41:06.759Z,62.44
2019-04-27T12:43:37.284Z,60.64
2019-04-27T12:46:05.964Z,61.38
2019-04-27T12:48:37.145Z,61.95
2019-04-27T12:51:04.942Z,62.57
2019-04-27T12:53:48.271Z,64.76
2019-04-27T12:56:16.635Z,63.49
2019-04-27T12:58:59.061Z,61.24
2019-04-27T13:01:28.997Z,60.08
2019-04-27T13:03:59.297Z,60.21
2019-04-27T13:06:27.941Z,59.47
2019-04-27T13:08:56.451Z,58.58
2019-04-27T13:11:26.670Z,56.71
2019-04-27T13:13:57.182Z,55.37
2019-04-27T13:16:26.870Z,54.50
2019-04-27T13:18:57.484Z,55.92
2019-04-27T13:21:26.369Z,54.99
2019-04-27T13:24:02.095Z,54.58
2019-04-27T13:26:25.278Z,55.10
2019-04-27T13:28:53.825Z,54.27
2019-04-27T13:31:22.329Z,54.50
2019-04-27T13:33:50.934Z,55.41
2019-04-27T13:36:19.531Z,53.14
2019-04-27T13:38:48.047Z,54.34
2019-04-27T13:41:27.801Z,54.11
2019-04-27T13:43:46.829Z,53.64
2019-04-27T13:46:19.816Z,54.29
2019-04-27T13:49:06.313Z,53.21
2019-04-27T13:51:39.295Z,53.87
2019-04-27T13:54:17.277Z,53.77
2019-04-27T13:56:38.281Z,52.70
2019-04-27T13:59:07.716Z,54.27
2019-04-27T14:01:36.430Z,54.58
2019-04-27T14:04:07.053Z,54.51
2019-04-27T14:06:35.622Z,53.40
2019-04-27T14:09:06.021Z,54.06
2019-04-27T14:11:34.616Z,54.12
2019-04-27T14:14:03.300Z,53.11
2019-04-27T14:16:31.791Z,53.36
2019-04-27T14:19:00.442Z,53.54
2019-04-27T14:21:29.559Z,54.27
2019-04-27T14:23:58.666Z,54.17
2019-04-27T14:26:28.443Z,53.60
2019-04-27T14:28:58.331Z,53.87
2019-04-27T14:31:26.905Z,53.75
2019-04-27T14:33:55.419Z,52.28
2019-04-27T14:36:23.965Z,51.37
2019-04-27T14:38:53.140Z,51.60
2019-04-27T14:41:21.644Z,51.03
2019-04-27T14:44:05.340Z,49.44
2019-04-27T14:46:20.560Z,50.38
2019-04-27T14:48:49.133Z,50.58
2019-04-27T14:51:18.745Z,50.67
2019-04-27T14:53:48.830Z,50.56
2019-04-27T14:56:18.200Z,52.39
2019-04-27T14:58:46.706Z,52.39
2019-04-27T15:01:15.306Z,53.92
2019-04-27T15:03:43.918Z,53.92
2019-04-27T15:06:13.829Z,54.08
2019-04-27T15:08:43.642Z,54.42
2019-04-27T15:11:15.563Z,56.25
2019-04-27T15:13:47.819Z,57.79
2019-04-27T15:16:13.008Z,58.68
2019-04-27T15:18:43.799Z,58.27
2019-04-27T15:21:12.484Z,58.09
2019-04-27T15:23:41.470Z,58.34
2019-04-27T15:26:10.545Z,56.87
2019-04-27T15:28:40.711Z,56.01
2019-04-27T15:31:23.634Z,55.68
2019-04-27T15:33:54.735Z,54.65
2019-04-27T15:36:26.280Z,55.09
2019-04-27T15:38:56.434Z,55.32
2019-04-27T15:41:28.926Z,56.14
2019-04-27T15:43:59.619Z,56.64
2019-04-27T15:46:33.581Z,55.91
2019-04-27T15:48:58.935Z,55.80
2019-04-27T15:51:28.310Z,56.67
2019-04-27T15:53:58.678Z,58.08
2019-04-27T15:56:30.474Z,58.08
2019-04-27T15:59:00.021Z,57.26
2019-04-27T16:01:31.242Z,57.17
2019-04-27T16:03:58.493Z,56.84
2019-04-27T16:06:28.541Z,56.59
2019-04-27T16:08:58.944Z,56.59
2019-04-27T16:11:27.631Z,57.15
2019-04-27T16:13:56.155Z,57.89
2019-04-27T16:16:29.111Z,57.46
2019-04-27T16:18:55.585Z,57.07
2019-04-27T16:21:24.230Z,56.54
2019-04-27T16:23:52.808Z,56.79
2019-04-27T16:26:21.490Z,57.50
2019-04-27T16:28:53.444Z,57.43
2019-04-27T16:31:24.496Z,57.28
2019-04-27T16:33:54.063Z,57.74
2019-04-27T16:36:21.398Z,58.26
2019-04-27T16:38:54.632Z,57.92
2019-04-27T16:41:23.260Z,57.27
2019-04-27T16:43:51.890Z,57.93
2019-04-27T16:46:21.414Z,57.79
2019-04-27T16:48:50.156Z,57.31
2019-04-27T16:51:18.801Z,57.27
2019-04-27T16:53:47.458Z,56.55
2019-04-27T16:56:18.556Z,57.09
2019-04-27T16:58:49.107Z,56.65
2019-04-27T17:01:24.092Z,57.11
2019-04-27T17:03:52.706Z,56.18
2019-04-27T17:06:21.573Z,56.17
2019-04-27T17:08:50.217Z,55.48
2019-04-27T17:11:19.514Z,55.35
2019-04-27T17:13:52.725Z,55.40
2019-04-27T17:16:39.544Z,55.37
2019-04-27T17:19:12.310Z,55.94
2019-04-27T17:21:41.272Z,55.91
2019-04-27T17:24:09.919Z,57.32
2019-04-27T17:26:41.886Z,56.57
2019-04-27T17:29:20.272Z,58.66
2019-04-27T17:31:50.469Z,60.41
2019-04-27T17:34:25.038Z,62.81
2019-04-27T17:36:54.468Z,63.93
2019-04-27T17:39:23.350Z,65.21
2019-04-27T17:41:52.806Z,66.56
2019-04-27T17:44:23.099Z,66.04
2019-04-27T17:46:51.267Z,67.58
2019-04-27T17:49:19.947Z,66.92
2019-04-27T17:51:48.550Z,67.17
2019-04-27T17:54:18.189Z,66.26
2019-04-27T17:56:49.333Z,67.91
2019-04-27T17:59:20.748Z,67.98
2019-04-27T18:01:49.440Z,67.83
2019-04-27T18:04:18.541Z,67.50
2019-04-27T18:06:48.378Z,66.45
2019-04-27T18:09:18.780Z,66.33
2019-04-27T18:11:48.620Z,70.09
2019-04-27T18:14:19.255Z,68.46
2019-04-27T18:16:48.296Z,67.04
2019-04-27T18:19:18.632Z,66.56
2019-04-27T18:22:01.294Z,66.71
2019-04-27T18:24:31.609Z,67.21
2019-04-27T18:27:14.195Z,67.90
2019-04-27T18:29:42.775Z,67.71
2019-04-27T18:32:11.339Z,67.71
2019-04-27T18:34:39.979Z,68.17
2019-04-27T18:37:08.607Z,68.30
2019-04-27T18:39:38.436Z,69.16
2019-04-27T18:42:08.827Z,68.88
2019-04-27T18:44:38.193Z,69.33
2019-04-27T18:47:08.418Z,71.32
2019-04-27T18:50:07.350Z,71.73
2019-04-27T18:52:40.843Z,70.04
2019-04-27T18:55:09.317Z,69.65
2019-04-27T18:57:38.802Z,68.90
2019-04-27T19:00:11.166Z,69.00
2019-04-27T19:02:39.760Z,69.60
2019-04-27T19:05:08.915Z,68.39
2019-04-27T19:07:38.153Z,67.90
2019-04-27T19:10:08.796Z,69.16
2019-04-27T19:12:39.151Z,69.38
2019-04-27T19:15:08.352Z,68.52
2019-04-27T19:17:38.689Z,68.13
2019-04-27T19:20:08.333Z,68.34
2019-04-27T19:22:38.609Z,70.21
2019-04-27T19:25:09.792Z,68.26
2019-04-27T19:27:45.720Z,67.99
2019-04-27T19:30:16.196Z,67.57
2019-04-27T19:32:44.821Z,68.32
2019-04-27T19:35:13.416Z,67.87
2019-04-27T19:37:41.870Z,67.97
2019-04-27T19:40:10.674Z,68.90
2019-04-27T19:42:39.258Z,68.27
2019-04-27T19:45:07.959Z,68.64
2019-04-27T19:47:38.303Z,67.75
2019-04-27T19:50:07.737Z,68.50
2019-04-27T19:52:36.340Z,68.13
2019-04-27T19:55:06.024Z,68.88
2019-04-27T19:57:39.191Z,71.20
2019-04-27T20:00:11.250Z,70.13
2019-04-27T20:02:39.877Z,68.39
2019-04-27T20:05:08.550Z,68.18
2019-04-27T20:07:38.075Z,67.86
2019-04-27T20:10:08.779Z,68.46
2019-04-27T20:12:37.494Z,69.16
2019-04-27T20:15:07.879Z,67.95
2019-04-27T20:17:36.451Z,67.54
2019-04-27T20:20:06.998Z,68.51
2019-04-27T20:22:35.586Z,68.53
2019-04-27T20:25:05.329Z,68.59
2019-04-27T20:27:45.289Z,68.92
2019-04-27T20:30:06.336Z,68.02
2019-04-27T20:32:34.914Z,68.43
2019-04-27T20:35:03.842Z,69.76
2019-04-27T20:37:32.450Z,67.39
2019-04-27T20:40:01.639Z,66.58
2019-04-27T20:42:31.488Z,66.72
2019-04-27T20:45:02.007Z,67.50
2019-04-27T20:47:30.569Z,68.22
2019-04-27T20:49:59.084Z,68.13
2019-04-27T20:52:30.784Z,68.31
2019-04-27T20:55:01.252Z,67.71
2019-04-27T20:57:31.607Z,68.77
2019-04-27T21:00:01.794Z,69.78
2019-04-27T21:02:32.218Z,70.56
2019-04-27T21:05:12.618Z,70.93
2019-04-27T21:07:48.799Z,71.55
2019-04-27T21:10:17.384Z,72.22
2019-04-27T21:12:45.899Z,70.99
2019-04-27T21:15:14.597Z,70.55
2019-04-27T21:17:43.662Z,69.92
2019-04-27T21:20:13.247Z,69.97
2019-04-27T21:22:41.961Z,70.16
2019-04-27T21:25:11.881Z,69.57
2019-04-27T21:27:41.191Z,70.50
2019-04-27T21:30:11.433Z,69.63
2019-04-27T21:32:40.082Z,69.40
2019-04-27T21:35:10.862Z,70.28
2019-04-27T21:37:40.933Z,70.54
2019-04-27T21:40:14.947Z,71.22
2019-04-27T21:42:43.721Z,71.66
2019-04-27T21:45:12.471Z,73.08
2019-04-27T21:47:41.330Z,71.78
2019-04-27T21:50:12.137Z,71.62
2019-04-27T21:52:42.371Z,71.14
2019-04-27T21:55:12.751Z,70.37
2019-04-27T21:57:41.273Z,70.02
2019-04-27T22:00:17.129Z,70.29
2019-04-27T22:02:45.827Z,70.51
2019-04-27T22:05:14.569Z,70.77
2019-04-27T22:07:43.238Z,70.94
2019-04-27T22:10:11.932Z,69.94
2019-04-27T22:12:41.621Z,70.58
2019-04-27T22:15:11.135Z,70.12
2019-04-27T22:17:39.807Z,69.99
2019-04-27T22:20:08.801Z,73.08
2019-04-27T22:22:39.057Z,72.80
2019-04-27T22:25:09.279Z,70.93
2019-04-27T22:27:37.803Z,68.59
2019-04-27T22:30:11.003Z,68.40
2019-04-27T22:32:41.415Z,66.75
2019-04-27T22:35:10.305Z,67.13
2019-04-27T22:37:38.954Z,66.83
2019-04-27T22:40:12.413Z,66.65
2019-04-27T22:42:45.486Z,66.43
2019-04-27T22:45:15.758Z,65.83
2019-04-27T22:47:44.340Z,65.96
2019-04-27T22:50:13.078Z,65.67
2019-04-27T22:52:41.603Z,65.62
2019-04-27T22:55:11.797Z,68.45
2019-04-27T22:57:45.174Z,66.89
2019-04-27T23:00:18.306Z,66.37
2019-04-27T23:02:48.530Z,66.79
2019-04-27T23:05:17.151Z,66.83
2019-04-27T23:07:45.770Z,66.36
2019-04-27T23:10:14.382Z,65.62
2019-04-27T23:12:43.006Z,66.37
2019-04-27T23:15:13.226Z,65.60
2019-04-27T23:17:46.445Z,65.82
2019-04-27T23:20:15.111Z,66.94
2019-04-27T23:22:43.654Z,66.62
2019-04-27T23:25:12.311Z,66.28
2019-04-27T23:27:41.128Z,66.50
2019-04-27T23:30:11.335Z,69.25
2019-04-27T23:32:41.659Z,69.80
2019-04-27T23:35:10.269Z,68.16
2019-04-27T23:37:38.785Z,67.58
2019-04-27T23:40:07.617Z,65.82
2019-04-27T23:42:37.187Z,65.99
2019-04-27T23:45:09.012Z,65.46
2019-04-27T23:47:37.959Z,66.35
2019-04-27T23:50:07.908Z,65.49
2019-04-27T23:52:55.037Z,65.20
2019-04-27T23:55:25.274Z,65.27
2019-04-27T23:57:53.816Z,65.27
